Aviation Digital Data Service (ADDS)

Output produced by TAFs form (1738 UTC 21 April 2018)
found at http://aviationweather.gov/adds/tafs/
 
RJTT 211730Z 23003KT 160V250 CAVOK 18/13 Q1017 NOSIG RMK A3005
TAF RJTT 211705Z 2118/2300 28004KT 9999 FEW030 
     BECMG 2122/2200 22006KT 
     BECMG 2202/2204 16012KT 
     BECMG 2212/2215 22006KT 
     BECMG 2215/2218 04010KT
       
TAF RJOO 211706Z 2118/2300 32004KT CAVOK 
     BECMG 2200/2202 22007KT 
     BECMG 2209/2212 32004KT
       
RJAA 211730Z 13003KT CAVOK 11/10 Q1017 NOSIG RMK A3005
TAF RJAA 211710Z 2118/2300 22005KT 9999 FEW020 
     BECMG 2209/2212 03006KT 
     BECMG 2215/2218 4000 BR FEW005 BKN008 
     TEMPO 2215/2221 1500 BR BCFG FEW002 BKN004
       
RJBB 211700Z AUTO 11002KT 9999 NCD 16/14 Q1020 NOSIG
TAF RJBB 211705Z 2118/2300 08004KT CAVOK 
     BECMG 2122/2200 24008KT
       
RJCC 211730Z 34014KT 9999 FEW030 BKN090 10/06 Q1015 RMK 1CU030 7AC090 A2999
TAF RJCC 211706Z 2118/2300 35013KT 9999 FEW010 SCT025 
     BECMG 2212/2215 18006KT
       
RJGG 211700Z 33003KT 3000 BR NSC 16/16 Q1020 NOSIG
TAF RJGG 211710Z 2118/2300 32006KT 9999 FEW030 
     TEMPO 2118/2121 3000 BR 
     BECMG 2200/2202 16006KT
       
RJFF 211730Z AUTO 10003KT 9999 NCD 16/13 Q1019 RMK A3011
TAF RJFF 211705Z 2118/2300 15005KT 9999 FEW030 
     BECMG 2201/2203 33010KT 
     BECMG 2209/2212 15004KT
       
ROAH 211730Z 13008KT 9999 FEW007 SCT010 BKN015 23/21 Q1015 RMK 1ST007 4CU010 7CU015 A2998
TAF ROAH 211706Z 2118/2300 11014KT 9999 FEW008 BKN015 
     TEMPO 2118/2119 FEW005 BKN008 
     TEMPO 2119/2201 11015G25KT 3000 TSRA FEW005 BKN008 SCT020CB 
     TEMPO 2201/2203 FEW005 BKN008 
     TEMPO 2218/2300 FEW005 BKN008